createdAt,value
2023-02-19T00:00:08.845Z,25.3
2023-02-19T00:01:10.987Z,25.3
2023-02-19T00:02:13.810Z,25.3
2023-02-19T00:03:15.777Z,25.3
2023-02-19T00:04:17.684Z,25.3
2023-02-19T00:05:19.555Z,25.3
2023-02-19T00:06:21.384Z,25.3
2023-02-19T00:07:23.287Z,25.3
2023-02-19T00:08:25.196Z,25.3
2023-02-19T00:09:27.102Z,25.3
2023-02-19T00:10:28.976Z,25.3
2023-02-19T00:11:30.831Z,25.3
2023-02-19T00:12:32.623Z,25.3
2023-02-19T00:13:34.598Z,25.3
2023-02-19T00:14:36.476Z,25.3
2023-02-19T00:15:38.353Z,25.3
2023-02-19T00:16:40.312Z,25.3
2023-02-19T00:17:42.061Z,25.3
2023-02-19T00:18:43.920Z,25.3
2023-02-19T00:19:45.773Z,25.3
2023-02-19T00:20:47.710Z,25.3
2023-02-19T00:21:49.540Z,25.3
2023-02-19T00:22:51.392Z,25.3
2023-02-19T00:23:53.277Z,25.3
2023-02-19T00:24:55.122Z,25.2
2023-02-19T00:26:01.085Z,25.2
2023-02-19T00:27:20.356Z,25.2
2023-02-19T00:28:22.153Z,25.3
2023-02-19T00:29:24.026Z,25.3
2023-02-19T00:30:25.954Z,25.2
2023-02-19T00:31:29.060Z,25.2
2023-02-19T00:32:35.232Z,25.2
2023-02-19T00:33:37.138Z,25.2
2023-02-19T00:34:38.881Z,25.3
2023-02-19T00:35:40.998Z,25.3
2023-02-19T00:36:42.955Z,25.3
2023-02-19T00:37:44.971Z,25.2
2023-02-19T00:38:46.808Z,25.2
2023-02-19T00:39:48.632Z,25.2
2023-02-19T00:40:50.542Z,25.2
2023-02-19T00:41:52.432Z,25.2
2023-02-19T00:42:54.287Z,25.2
2023-02-19T00:43:56.162Z,25.2
2023-02-19T00:44:58.001Z,25.2
2023-02-19T00:45:59.800Z,25.2
2023-02-19T00:47:01.686Z,25.2
2023-02-19T00:48:03.549Z,25.2
2023-02-19T00:49:05.389Z,25.2
2023-02-19T00:50:07.272Z,25.2
2023-02-19T00:51:09.468Z,25.2
2023-02-19T00:52:12.902Z,25.2
2023-02-19T00:53:14.732Z,25.2
2023-02-19T00:54:16.676Z,25.2
2023-02-19T00:55:18.539Z,25.1
2023-02-19T00:56:20.282Z,25.1
2023-02-19T00:57:22.210Z,25.1
2023-02-19T00:58:24.003Z,25.1
2023-02-19T00:59:25.803Z,25.2
2023-02-19T01:00:27.679Z,25.2
2023-02-19T01:01:29.405Z,25.1
2023-02-19T01:02:31.288Z,25.1
2023-02-19T01:03:33.187Z,25.1
2023-02-19T01:04:35.009Z,25.2
2023-02-19T01:05:37.141Z,25.2
2023-02-19T01:06:38.912Z,25.1
2023-02-19T01:07:40.839Z,25.1
2023-02-19T01:08:42.689Z,25.1
2023-02-19T01:09:44.556Z,25.2
2023-02-19T01:10:46.276Z,25.1
2023-02-19T01:11:48.171Z,25.1
2023-02-19T01:12:50.099Z,25.1
2023-02-19T01:13:51.908Z,25.1
2023-02-19T01:14:53.794Z,25.1
2023-02-19T01:15:55.697Z,25.1
2023-02-19T01:16:57.691Z,25.1
2023-02-19T01:17:59.619Z,25.1
2023-02-19T01:19:01.394Z,25.1
2023-02-19T01:20:03.239Z,25.1
2023-02-19T01:21:05.196Z,25.1
2023-02-19T01:22:07.047Z,25.1
2023-02-19T01:23:08.984Z,25.1
2023-02-19T01:24:10.942Z,25.1
2023-02-19T01:25:15.438Z,25.1
2023-02-19T01:26:17.327Z,25.1
2023-02-19T01:27:19.228Z,25.1
2023-02-19T01:28:21.036Z,25.1
2023-02-19T01:29:22.861Z,25.1
2023-02-19T01:30:24.860Z,25.1
2023-02-19T01:31:26.883Z,25.1
2023-02-19T01:32:29.464Z,25.1
2023-02-19T01:33:31.284Z,25.1
2023-02-19T01:34:33.025Z,25.1
2023-02-19T01:35:34.886Z,25.1
2023-02-19T01:36:36.746Z,25.1
2023-02-19T01:37:38.643Z,25.1
2023-02-19T01:38:40.553Z,25.1
2023-02-19T01:39:42.443Z,25.1
2023-02-19T01:40:44.294Z,25.1
2023-02-19T01:41:46.200Z,25.1
2023-02-19T01:42:48.039Z,25.1
2023-02-19T01:43:49.888Z,25.1
2023-02-19T01:44:51.801Z,25.1
2023-02-19T01:45:53.744Z,25.1
2023-02-19T01:46:55.721Z,25.1
2023-02-19T01:47:57.902Z,25.1
2023-02-19T01:48:59.757Z,25.1
2023-02-19T01:50:01.532Z,25.1
2023-02-19T01:51:03.450Z,25.1
2023-02-19T01:52:05.288Z,25.1
2023-02-19T01:53:07.146Z,25.1
2023-02-19T01:54:09.032Z,25.1
2023-02-19T01:55:10.668Z,25.1
2023-02-19T01:56:12.710Z,25.1
2023-02-19T01:57:14.515Z,25.1
2023-02-19T01:58:16.426Z,25.1
2023-02-19T01:59:18.231Z,25.1
2023-02-19T02:00:20.104Z,25.1
2023-02-19T02:01:21.956Z,25.1
2023-02-19T02:02:23.856Z,25
2023-02-19T02:03:25.684Z,25.1
2023-02-19T02:04:27.601Z,25
2023-02-19T02:05:29.358Z,25
2023-02-19T02:06:33.852Z,25
2023-02-19T02:07:38.638Z,25
2023-02-19T02:08:40.455Z,25
2023-02-19T02:09:42.312Z,25
2023-02-19T02:10:44.238Z,25
2023-02-19T02:11:46.061Z,25
2023-02-19T02:12:47.713Z,25
2023-02-19T02:13:49.574Z,25
2023-02-19T02:14:51.321Z,25
2023-02-19T02:15:53.117Z,25
2023-02-19T02:16:55.174Z,25
2023-02-19T02:17:57.061Z,25
2023-02-19T02:18:58.971Z,25
2023-02-19T02:20:00.687Z,25
2023-02-19T02:21:02.422Z,25
2023-02-19T02:22:04.260Z,25
2023-02-19T02:23:06.128Z,25
2023-02-19T02:24:07.978Z,25
2023-02-19T02:25:09.862Z,25
2023-02-19T02:26:11.791Z,24.9
2023-02-19T02:27:13.712Z,25
2023-02-19T02:28:15.536Z,25
2023-02-19T02:29:17.496Z,25
2023-02-19T02:30:19.419Z,25
2023-02-19T02:31:21.588Z,25
2023-02-19T02:32:23.811Z,25
2023-02-19T02:33:25.681Z,24.9
2023-02-19T02:34:27.520Z,24.9
2023-02-19T02:35:29.255Z,24.9
2023-02-19T02:36:33.744Z,24.9
2023-02-19T02:37:35.508Z,24.9
2023-02-19T02:38:37.361Z,24.9
2023-02-19T02:39:39.279Z,24.9
2023-02-19T02:40:41.042Z,24.9
2023-02-19T02:41:42.918Z,24.9
2023-02-19T02:42:44.746Z,24.9
2023-02-19T02:43:46.617Z,24.9
2023-02-19T02:44:48.350Z,24.9
2023-02-19T02:45:50.322Z,24.9
2023-02-19T02:46:52.473Z,24.9
2023-02-19T02:47:54.300Z,24.9
2023-02-19T02:48:56.170Z,24.9
2023-02-19T02:49:58.076Z,24.9
2023-02-19T02:50:59.862Z,24.9
2023-02-19T02:52:01.610Z,24.9
2023-02-19T02:53:03.367Z,24.9
2023-02-19T02:54:05.213Z,24.9
2023-02-19T02:55:07.179Z,24.9
2023-02-19T02:56:08.833Z,24.9
2023-02-19T02:57:10.765Z,24.9
2023-02-19T02:58:12.609Z,24.9
2023-02-19T02:59:14.535Z,24.9
2023-02-19T03:00:16.305Z,24.9
2023-02-19T03:01:18.242Z,24.9
2023-02-19T03:02:20.274Z,24.9
2023-02-19T03:03:22.384Z,24.9
2023-02-19T03:04:24.259Z,24.9
2023-02-19T03:05:26.160Z,24.9
2023-02-19T03:06:28.019Z,24.9
2023-02-19T03:07:29.928Z,24.9
2023-02-19T03:08:31.779Z,24.9
2023-02-19T03:09:33.576Z,24.9
2023-02-19T03:10:35.461Z,24.8
2023-02-19T03:11:37.267Z,24.8
2023-02-19T03:12:39.049Z,24.8
2023-02-19T03:13:40.881Z,24.8
2023-02-19T03:14:42.716Z,24.8
2023-02-19T03:15:44.506Z,24.9
2023-02-19T03:16:46.412Z,24.8
2023-02-19T03:17:48.688Z,24.9
2023-02-19T03:18:50.503Z,24.8
2023-02-19T03:19:52.291Z,24.9
2023-02-19T03:20:53.972Z,24.9
2023-02-19T03:21:55.912Z,24.9
2023-02-19T03:22:57.645Z,24.9
2023-02-19T03:23:59.482Z,24.9
2023-02-19T03:25:01.324Z,24.9
2023-02-19T03:26:03.148Z,24.9
2023-02-19T03:27:05.084Z,24.9
2023-02-19T03:28:09.639Z,24.9
2023-02-19T03:29:11.498Z,24.8
2023-02-19T03:30:13.380Z,24.9
2023-02-19T03:31:15.708Z,24.9
2023-02-19T03:32:18.180Z,24.9
2023-02-19T03:33:20.417Z,24.9
2023-02-19T03:34:22.277Z,24.9
2023-02-19T03:35:24.130Z,24.9
2023-02-19T03:36:25.972Z,24.9
2023-02-19T03:37:27.654Z,24.9
2023-02-19T03:38:29.625Z,24.9
2023-02-19T03:39:31.461Z,24.9
2023-02-19T03:40:33.442Z,24.9
2023-02-19T03:41:35.221Z,24.9
2023-02-19T03:42:37.078Z,24.9
2023-02-19T03:43:38.820Z,24.9
2023-02-19T03:44:40.705Z,24.9
2023-02-19T03:45:42.537Z,24.9
2023-02-19T03:46:44.576Z,24.9
2023-02-19T03:47:46.484Z,24.9
2023-02-19T03:48:48.375Z,24.8
2023-02-19T03:49:50.223Z,24.8
2023-02-19T03:50:52.141Z,24.8
2023-02-19T03:51:54.053Z,24.8
2023-02-19T03:52:55.795Z,24.8
2023-02-19T03:53:57.636Z,24.8
2023-02-19T03:54:59.506Z,24.8
2023-02-19T03:56:01.469Z,24.8
2023-02-19T03:57:03.299Z,24.8
2023-02-19T03:58:05.120Z,24.8
2023-02-19T03:59:06.986Z,24.8
2023-02-19T04:00:08.650Z,24.8
2023-02-19T04:01:10.869Z,24.8
2023-02-19T04:02:14.139Z,24.8
2023-02-19T04:03:16.264Z,24.8
2023-02-19T04:04:18.136Z,24.8
2023-02-19T04:05:20.250Z,24.8
2023-02-19T04:06:22.073Z,24.8
2023-02-19T04:07:23.969Z,24.8
2023-02-19T04:08:25.680Z,24.8
2023-02-19T04:09:27.440Z,24.8
2023-02-19T04:10:29.319Z,24.8
2023-02-19T04:11:31.242Z,24.8
2023-02-19T04:12:33.075Z,24.8
2023-02-19T04:13:34.924Z,24.8
2023-02-19T04:14:36.783Z,24.8
2023-02-19T04:15:38.601Z,24.8
2023-02-19T04:16:40.374Z,24.8
2023-02-19T04:17:42.433Z,24.8
2023-02-19T04:18:46.799Z,24.8
2023-02-19T04:19:48.587Z,24.8
2023-02-19T04:20:50.524Z,24.8
2023-02-19T04:21:52.405Z,24.8
2023-02-19T04:22:54.034Z,24.8
2023-02-19T04:23:55.788Z,24.8
2023-02-19T04:24:57.701Z,24.8
2023-02-19T04:25:59.602Z,24.8
2023-02-19T04:27:01.443Z,24.8
2023-02-19T04:28:03.256Z,24.8
2023-02-19T04:29:05.143Z,24.8
2023-02-19T04:30:07.052Z,24.7
2023-02-19T04:31:09.451Z,24.7
2023-02-19T04:32:12.635Z,24.7
2023-02-19T04:33:14.472Z,24.7
2023-02-19T04:34:16.228Z,24.7
2023-02-19T04:35:18.105Z,24.7
2023-02-19T04:36:19.956Z,24.8
2023-02-19T04:37:21.874Z,24.8
2023-02-19T04:38:23.733Z,24.8
2023-02-19T04:39:25.582Z,24.8
2023-02-19T04:40:27.390Z,24.8
2023-02-19T04:41:31.838Z,24.8
2023-02-19T04:42:33.680Z,24.8
2023-02-19T04:43:35.441Z,24.8
2023-02-19T04:44:37.284Z,24.8
2023-02-19T04:45:39.173Z,24.8
2023-02-19T04:46:43.015Z,24.8
2023-02-19T04:47:44.911Z,24.7
2023-02-19T04:48:46.656Z,24.7
2023-02-19T04:49:48.578Z,24.7
2023-02-19T04:50:50.475Z,24.7
2023-02-19T04:51:52.457Z,24.6
2023-02-19T04:52:54.288Z,24.6
2023-02-19T04:53:56.202Z,24.6
2023-02-19T04:54:58.142Z,24.6
2023-02-19T04:56:00.125Z,24.5
2023-02-19T04:57:02.100Z,24.5
2023-02-19T04:58:04.018Z,24.5
2023-02-19T04:59:05.853Z,24.5
2023-02-19T05:00:07.700Z,24.5
2023-02-19T05:01:09.898Z,24.5
2023-02-19T05:02:13.692Z,24.5
2023-02-19T05:03:15.659Z,24.5
2023-02-19T05:04:17.512Z,24.5
2023-02-19T05:05:19.609Z,24.5
2023-02-19T05:06:21.493Z,24.5
2023-02-19T05:07:23.417Z,24.5
2023-02-19T05:08:25.176Z,24.4
2023-02-19T05:09:27.053Z,24.4
2023-02-19T05:10:28.956Z,24.5
2023-02-19T05:11:30.862Z,24.5
2023-02-19T05:12:32.771Z,24.5
2023-02-19T05:13:34.718Z,24.5
2023-02-19T05:14:36.767Z,24.5
2023-02-19T05:15:38.743Z,24.5
2023-02-19T05:16:40.646Z,24.5
2023-02-19T05:17:42.567Z,24.5
2023-02-19T05:18:44.369Z,24.5
2023-02-19T05:19:46.132Z,24.5
2023-02-19T05:20:47.964Z,24.5
2023-02-19T05:21:49.726Z,24.5
2023-02-19T05:22:51.572Z,24.5
2023-02-19T05:23:53.417Z,24.5
2023-02-19T05:24:55.196Z,24.5
2023-02-19T05:25:57.062Z,24.5
2023-02-19T05:26:58.928Z,24.5
2023-02-19T05:28:00.717Z,24.5
2023-02-19T05:29:02.462Z,24.5
2023-02-19T05:30:04.295Z,24.5
2023-02-19T05:31:06.261Z,24.5
2023-02-19T05:32:08.408Z,24.5
2023-02-19T05:33:10.487Z,24.5
2023-02-19T05:34:12.370Z,24.5
2023-02-19T05:35:14.281Z,24.5
2023-02-19T05:36:16.100Z,24.5
2023-02-19T05:37:17.989Z,24.6
2023-02-19T05:38:19.849Z,24.6
2023-02-19T05:39:21.578Z,24.5
2023-02-19T05:40:23.419Z,24.5
2023-02-19T05:41:25.167Z,24.6
2023-02-19T05:42:27.044Z,24.6
2023-02-19T05:43:28.879Z,24.6
2023-02-19T05:44:30.784Z,24.6
2023-02-19T05:45:32.672Z,24.6
2023-02-19T05:46:34.592Z,24.6
2023-02-19T05:47:36.691Z,24.6
2023-02-19T05:48:38.538Z,24.7
2023-02-19T05:49:40.292Z,24.7
2023-02-19T05:50:42.137Z,24.7
2023-02-19T05:51:43.878Z,24.7
2023-02-19T05:52:45.627Z,24.7
2023-02-19T05:53:47.505Z,24.7
2023-02-19T05:54:49.325Z,24.8
2023-02-19T05:55:51.165Z,24.8
2023-02-19T05:56:52.938Z,24.9
2023-02-19T05:57:54.846Z,24.9
2023-02-19T05:58:56.724Z,24.9
2023-02-19T05:59:58.475Z,24.9
2023-02-19T06:01:00.387Z,24.9
2023-02-19T06:02:02.281Z,24.9
2023-02-19T06:03:04.136Z,25
2023-02-19T06:04:06.105Z,25.1
2023-02-19T06:05:08.333Z,25.1
2023-02-19T06:06:10.214Z,25.1
2023-02-19T06:07:12.036Z,25.2
2023-02-19T06:08:13.883Z,25.2
2023-02-19T06:09:15.641Z,25.3
2023-02-19T06:10:17.553Z,25.4
2023-02-19T06:11:19.615Z,25.5
2023-02-19T06:12:21.494Z,25.6
2023-02-19T06:13:23.233Z,25.6
2023-02-19T06:14:25.159Z,25.6
2023-02-19T06:15:27.053Z,25.5
2023-02-19T06:16:28.984Z,25.5
2023-02-19T06:17:31.050Z,25.4
2023-02-19T06:18:32.791Z,25.4
2023-02-19T06:19:34.599Z,25.4
2023-02-19T06:20:36.501Z,25.4
2023-02-19T06:21:38.340Z,25.4
2023-02-19T06:22:40.236Z,25.4
2023-02-19T06:23:42.158Z,25.4
2023-02-19T06:24:44.201Z,25.4
2023-02-19T06:25:46.058Z,25.4
2023-02-19T06:26:47.897Z,25.4
2023-02-19T06:27:49.647Z,25.4
2023-02-19T06:28:51.529Z,25.4
2023-02-19T06:29:53.527Z,25.4
2023-02-19T06:30:55.312Z,25.4
2023-02-19T06:31:57.156Z,25.4
2023-02-19T06:32:59.616Z,25.4
2023-02-19T06:34:01.533Z,25.4
2023-02-19T06:35:03.430Z,25.4
2023-02-19T06:36:05.171Z,25.4
2023-02-19T06:37:07.017Z,25.5
2023-02-19T06:38:08.765Z,25.5
2023-02-19T06:39:10.664Z,25.5
2023-02-19T06:40:12.646Z,25.5
2023-02-19T06:41:14.715Z,25.5
2023-02-19T06:42:16.685Z,25.5
2023-02-19T06:43:18.524Z,25.5
2023-02-19T06:44:20.417Z,25.5
2023-02-19T06:45:22.196Z,25.5
2023-02-19T06:46:27.012Z,25.5
2023-02-19T06:47:29.204Z,25.5
2023-02-19T06:48:31.068Z,25.5
2023-02-19T06:49:32.903Z,25.6
2023-02-19T06:50:34.907Z,25.6
2023-02-19T06:51:36.826Z,25.6
2023-02-19T06:52:38.665Z,25.6
2023-02-19T06:53:40.523Z,25.6
2023-02-19T06:54:42.377Z,25.6
2023-02-19T06:55:47.021Z,25.6
2023-02-19T06:56:48.877Z,25.7
2023-02-19T06:57:50.786Z,25.7
2023-02-19T06:58:52.527Z,25.7
2023-02-19T06:59:54.370Z,25.7
2023-02-19T07:00:56.345Z,25.7
2023-02-19T07:01:58.553Z,25.7
2023-02-19T07:03:00.434Z,25.7
2023-02-19T07:04:02.368Z,25.7
2023-02-19T07:05:04.348Z,25.7
2023-02-19T07:06:06.179Z,25.7
2023-02-19T07:07:08.073Z,25.8
2023-02-19T07:08:09.898Z,25.8
2023-02-19T07:09:11.509Z,25.8
2023-02-19T07:10:13.387Z,25.8
2023-02-19T07:11:15.103Z,25.8
2023-02-19T07:12:17.026Z,25.8
2023-02-19T07:13:18.940Z,25.8
2023-02-19T07:14:20.790Z,25.9
2023-02-19T07:15:22.644Z,25.9
2023-02-19T07:16:24.485Z,25.9
2023-02-19T07:17:26.367Z,25.9
2023-02-19T07:18:28.280Z,25.9
2023-02-19T07:19:30.139Z,26
2023-02-19T07:20:31.984Z,26
2023-02-19T07:21:34.052Z,26
2023-02-19T07:22:35.884Z,26
2023-02-19T07:23:37.667Z,26
2023-02-19T07:24:39.493Z,26
2023-02-19T07:25:41.341Z,26
2023-02-19T07:26:43.123Z,26.1
2023-02-19T07:27:44.826Z,26.1
2023-02-19T07:28:46.677Z,26.1
2023-02-19T07:29:48.434Z,26.1
2023-02-19T07:30:50.157Z,26.1
2023-02-19T07:31:52.194Z,26.1
2023-02-19T07:32:54.304Z,26.2
2023-02-19T07:33:56.189Z,26.2
2023-02-19T07:34:58.083Z,26.1
2023-02-19T07:35:59.860Z,26.2
2023-02-19T07:37:01.697Z,26.2
2023-02-19T07:38:03.600Z,26.2
2023-02-19T07:39:05.392Z,26.2
2023-02-19T07:40:08.369Z,26.2
2023-02-19T07:41:10.524Z,26.2
2023-02-19T07:42:13.959Z,26.2
2023-02-19T07:43:15.940Z,26.3
2023-02-19T07:44:17.820Z,26.3
2023-02-19T07:45:19.677Z,26.3
2023-02-19T07:46:21.416Z,26.3
2023-02-19T07:47:23.366Z,26.3
2023-02-19T07:48:25.296Z,26.3
2023-02-19T07:49:27.099Z,26.3
2023-02-19T07:50:28.813Z,26.3
2023-02-19T07:51:30.656Z,26.3
2023-02-19T07:52:32.433Z,26.3
2023-02-19T07:53:34.088Z,26.3
2023-02-19T07:54:36.010Z,26.3
2023-02-19T07:55:37.764Z,26.3
2023-02-19T07:56:39.678Z,26.4
2023-02-19T07:57:41.483Z,26.3
2023-02-19T07:58:43.232Z,26.4
2023-02-19T07:59:45.128Z,26.4
2023-02-19T08:00:46.922Z,26.4
2023-02-19T08:01:49.028Z,26.4
2023-02-19T08:02:50.827Z,26.4
2023-02-19T08:03:52.557Z,26.4
2023-02-19T08:04:54.472Z,26.4
2023-02-19T08:05:56.286Z,26.4
2023-02-19T08:06:58.006Z,26.4
2023-02-19T08:07:59.862Z,26.4
2023-02-19T08:09:01.681Z,26.5
2023-02-19T08:10:03.620Z,26.4
2023-02-19T08:11:05.532Z,26.4
2023-02-19T08:12:07.296Z,26.4
2023-02-19T08:13:09.071Z,26.4
2023-02-19T08:14:10.686Z,26.5
2023-02-19T08:15:12.608Z,26.4
2023-02-19T08:16:20.255Z,26.5
2023-02-19T08:17:45.078Z,26.5
2023-02-19T08:18:46.919Z,26.5
2023-02-19T08:19:48.812Z,26.5
2023-02-19T08:20:50.557Z,26.5
2023-02-19T08:21:52.365Z,26.5
2023-02-19T08:22:54.230Z,26.5
2023-02-19T08:23:56.135Z,26.6
2023-02-19T08:24:57.950Z,26.5
2023-02-19T08:25:59.901Z,26.6
2023-02-19T08:27:01.621Z,26.5
2023-02-19T08:28:03.371Z,26.5
2023-02-19T08:29:05.146Z,26.6
2023-02-19T08:30:07.210Z,26.5
2023-02-19T08:31:09.615Z,26.5
2023-02-19T08:32:13.528Z,26.5
2023-02-19T08:33:15.641Z,26.6
2023-02-19T08:34:17.550Z,26.6
2023-02-19T08:35:19.415Z,26.6
2023-02-19T08:36:21.238Z,26.6
2023-02-19T08:37:23.090Z,26.5
2023-02-19T08:38:24.947Z,26.6
2023-02-19T08:39:26.781Z,26.6
2023-02-19T08:40:28.721Z,26.6
2023-02-19T08:41:30.660Z,26.6
2023-02-19T08:42:32.444Z,26.5
2023-02-19T08:43:34.401Z,26.6
2023-02-19T08:44:36.447Z,26.6
2023-02-19T08:45:38.306Z,26.6
2023-02-19T08:46:40.062Z,26.6
2023-02-19T08:47:41.896Z,26.6
2023-02-19T08:48:43.786Z,26.6
2023-02-19T08:49:45.600Z,26.6
2023-02-19T08:50:47.520Z,26.6
2023-02-19T08:51:49.311Z,26.6
2023-02-19T08:52:51.001Z,26.6
2023-02-19T08:53:55.754Z,26.6
2023-02-19T08:54:57.623Z,26.6
2023-02-19T08:56:00.445Z,26.6
2023-02-19T08:57:02.182Z,26.6
2023-02-19T08:58:03.957Z,26.6
2023-02-19T08:59:05.909Z,26.6
2023-02-19T09:00:07.688Z,26.6
2023-02-19T09:01:09.801Z,26.6
2023-02-19T09:02:13.119Z,26.6
2023-02-19T09:03:14.969Z,26.6
2023-02-19T09:04:16.944Z,26.6
2023-02-19T09:05:19.079Z,26.6
2023-02-19T09:06:20.958Z,26.6
2023-02-19T09:07:22.886Z,26.6
2023-02-19T09:08:24.716Z,26.6
2023-02-19T09:09:26.581Z,26.6
2023-02-19T09:10:28.427Z,26.6
2023-02-19T09:11:30.285Z,26.6
2023-02-19T09:12:32.008Z,26.6
2023-02-19T09:13:33.945Z,26.6
2023-02-19T09:14:35.805Z,26.6
2023-02-19T09:15:37.714Z,26.6
2023-02-19T09:16:39.736Z,26.6
2023-02-19T09:17:41.624Z,26.6
2023-02-19T09:18:43.541Z,26.6
2023-02-19T09:19:45.277Z,26.6
2023-02-19T09:20:46.929Z,26.6
2023-02-19T09:21:48.835Z,26.7
2023-02-19T09:22:50.662Z,26.6
2023-02-19T09:23:52.612Z,26.6
2023-02-19T09:24:54.334Z,26.6
2023-02-19T09:25:56.087Z,26.6
2023-02-19T09:26:57.840Z,26.6
2023-02-19T09:28:02.405Z,26.6
2023-02-19T09:29:04.237Z,26.6
2023-02-19T09:30:06.153Z,26.6
2023-02-19T09:31:08.228Z,26.7
2023-02-19T09:32:11.436Z,26.7
2023-02-19T09:33:13.609Z,26.7
2023-02-19T09:34:15.481Z,26.7
2023-02-19T09:35:17.336Z,26.7
2023-02-19T09:36:19.269Z,26.7
2023-02-19T09:37:21.138Z,26.7
2023-02-19T09:38:22.879Z,26.7
2023-02-19T09:39:24.729Z,26.7
2023-02-19T09:40:26.596Z,26.7
2023-02-19T09:41:28.440Z,26.7
2023-02-19T09:42:30.228Z,26.7
2023-02-19T09:43:32.116Z,26.7
2023-02-19T09:44:33.993Z,26.7
2023-02-19T09:45:35.715Z,26.7
2023-02-19T09:46:37.437Z,26.7
2023-02-19T09:47:39.268Z,26.7
2023-02-19T09:48:41.185Z,26.7
2023-02-19T09:49:43.035Z,26.7
2023-02-19T09:50:44.908Z,26.7
2023-02-19T09:51:46.808Z,26.7
2023-02-19T09:52:48.578Z,26.7
2023-02-19T09:53:50.454Z,26.7
2023-02-19T09:54:52.276Z,26.7
2023-02-19T09:55:54.143Z,26.8
2023-02-19T09:56:56.151Z,26.8
2023-02-19T09:57:58.857Z,26.8
2023-02-19T09:59:00.596Z,26.8
2023-02-19T10:00:02.445Z,26.8
2023-02-19T10:01:04.300Z,26.8
2023-02-19T10:02:06.325Z,26.8
2023-02-19T10:03:08.208Z,26.8
2023-02-19T10:04:10.108Z,26.8
2023-02-19T10:05:12.080Z,26.8
2023-02-19T10:06:14.083Z,26.8
2023-02-19T10:07:16.016Z,26.8
2023-02-19T10:08:18.056Z,26.8
2023-02-19T10:09:19.917Z,26.8
2023-02-19T10:10:21.772Z,26.9
2023-02-19T10:11:23.617Z,26.9
2023-02-19T10:12:25.381Z,26.9
2023-02-19T10:13:27.103Z,26.9
2023-02-19T10:14:29.097Z,26.9
2023-02-19T10:15:30.931Z,26.9
2023-02-19T10:16:32.796Z,26.9
2023-02-19T10:17:34.619Z,26.9
2023-02-19T10:18:36.459Z,26.9
2023-02-19T10:19:38.212Z,26.9
2023-02-19T10:20:39.989Z,26.9
2023-02-19T10:21:42.084Z,26.9
2023-02-19T10:22:43.862Z,26.9
2023-02-19T10:23:45.626Z,26.9
2023-02-19T10:24:47.461Z,26.9
2023-02-19T10:25:49.275Z,26.9
2023-02-19T10:26:51.190Z,26.9
2023-02-19T10:27:53.125Z,27
2023-02-19T10:28:57.689Z,27
2023-02-19T10:29:59.479Z,27
2023-02-19T10:31:01.765Z,27
2023-02-19T10:32:03.728Z,27
2023-02-19T10:33:05.642Z,27
2023-02-19T10:34:07.562Z,27
2023-02-19T10:35:09.437Z,27
2023-02-19T10:36:11.296Z,27
2023-02-19T10:37:13.154Z,27
2023-02-19T10:38:14.893Z,27
2023-02-19T10:39:16.649Z,27
2023-02-19T10:40:18.554Z,27
2023-02-19T10:41:20.638Z,27
2023-02-19T10:42:22.553Z,27
2023-02-19T10:43:24.443Z,27.1
2023-02-19T10:44:26.240Z,27
2023-02-19T10:45:28.053Z,27.1
2023-02-19T10:46:29.957Z,27.1
2023-02-19T10:47:32.106Z,27.1
2023-02-19T10:48:33.996Z,27.1
2023-02-19T10:49:35.858Z,27
2023-02-19T10:50:37.714Z,27.1
2023-02-19T10:51:39.692Z,27.1
2023-02-19T10:52:41.606Z,27.1
2023-02-19T10:53:43.463Z,27.1
2023-02-19T10:54:45.350Z,27.1
2023-02-19T10:55:47.152Z,27.1
2023-02-19T10:56:48.942Z,27.1
2023-02-19T10:57:50.789Z,27.1
2023-02-19T10:58:52.611Z,27.1
2023-02-19T10:59:54.405Z,27.1
2023-02-19T11:00:56.249Z,27.1
2023-02-19T11:01:58.302Z,27.1
2023-02-19T11:03:00.517Z,27.1
2023-02-19T11:04:02.281Z,27.1
2023-02-19T11:05:04.108Z,27.1
2023-02-19T11:06:05.960Z,27.1
2023-02-19T11:07:07.883Z,27.1
2023-02-19T11:08:09.768Z,27.1
2023-02-19T11:09:11.523Z,27.1
2023-02-19T11:10:13.448Z,27.1
2023-02-19T11:11:15.302Z,27.1
2023-02-19T11:12:17.307Z,27.1
2023-02-19T11:13:19.228Z,27.1
2023-02-19T11:14:20.974Z,27.1
2023-02-19T11:15:22.641Z,27.2
2023-02-19T11:16:24.545Z,27.2
2023-02-19T11:17:26.594Z,27.2
2023-02-19T11:18:28.379Z,27.1
2023-02-19T11:19:30.430Z,27.1
2023-02-19T11:20:32.282Z,27.2
2023-02-19T11:21:34.126Z,27.2
2023-02-19T11:22:36.018Z,27.2
2023-02-19T11:23:37.934Z,27.2
2023-02-19T11:24:39.814Z,27.2
2023-02-19T11:25:41.730Z,27.2
2023-02-19T11:26:43.550Z,27.2
2023-02-19T11:27:45.399Z,27.2
2023-02-19T11:28:47.483Z,27.2
2023-02-19T11:29:49.325Z,27.2
2023-02-19T11:30:51.187Z,27.2
2023-02-19T11:31:53.135Z,27.2
2023-02-19T11:32:55.262Z,27.2
2023-02-19T11:33:57.142Z,27.2
2023-02-19T11:34:58.987Z,27.2
2023-02-19T11:36:00.758Z,27.3
2023-02-19T11:37:02.569Z,27.2
2023-02-19T11:38:04.445Z,27.2
2023-02-19T11:39:06.310Z,27.2
2023-02-19T11:40:08.070Z,27.3
2023-02-19T11:41:10.253Z,27.3
2023-02-19T11:42:13.686Z,27.3
2023-02-19T11:43:15.580Z,27.2
2023-02-19T11:44:17.564Z,27.2
2023-02-19T11:45:19.441Z,27.3
2023-02-19T11:46:21.216Z,27.3
2023-02-19T11:47:23.353Z,27.3
2023-02-19T11:48:25.108Z,27.3
2023-02-19T11:49:26.991Z,27.3
2023-02-19T11:50:28.893Z,27.3
2023-02-19T11:51:30.779Z,27.3
2023-02-19T11:52:32.494Z,27.3
2023-02-19T11:53:34.377Z,27.3
2023-02-19T11:54:36.230Z,27.3
2023-02-19T11:55:38.145Z,27.3
2023-02-19T11:56:39.892Z,27.3
2023-02-19T11:57:41.798Z,27.3
2023-02-19T11:58:43.692Z,27.3
2023-02-19T11:59:45.453Z,27.3
2023-02-19T12:00:47.276Z,27.3
2023-02-19T12:01:49.081Z,27.3
2023-02-19T12:02:51.211Z,27.3
2023-02-19T12:03:53.092Z,27.3
2023-02-19T12:04:55.016Z,27.3
2023-02-19T12:05:56.978Z,27.3
2023-02-19T12:06:58.801Z,27.3
2023-02-19T12:08:00.555Z,27.3
2023-02-19T12:09:02.499Z,27.3
2023-02-19T12:10:04.267Z,27.3
2023-02-19T12:11:06.132Z,27.4
2023-02-19T12:12:10.631Z,27.4
2023-02-19T12:13:12.473Z,27.4
2023-02-19T12:14:14.466Z,27.3
2023-02-19T12:15:16.315Z,27.4
2023-02-19T12:16:18.351Z,27.3
2023-02-19T12:17:20.379Z,27.4
2023-02-19T12:18:22.225Z,27.4
2023-02-19T12:19:23.965Z,27.3
2023-02-19T12:20:25.832Z,27.4
2023-02-19T12:21:27.740Z,27.4
2023-02-19T12:22:29.620Z,27.4
2023-02-19T12:23:31.527Z,27.4
2023-02-19T12:24:33.428Z,27.4
2023-02-19T12:25:35.196Z,27.4
2023-02-19T12:26:37.078Z,27.4
2023-02-19T12:27:38.868Z,27.4
2023-02-19T12:28:40.730Z,27.4
2023-02-19T12:29:42.578Z,27.4
2023-02-19T12:30:44.553Z,27.4
2023-02-19T12:31:46.552Z,27.4
2023-02-19T12:32:48.409Z,27.4
2023-02-19T12:33:50.160Z,27.4
2023-02-19T12:34:51.978Z,27.4
2023-02-19T12:35:53.892Z,27.4
2023-02-19T12:36:55.795Z,27.4
2023-02-19T12:37:57.477Z,27.4
2023-02-19T12:38:59.307Z,27.4
2023-02-19T12:40:01.267Z,27.4
2023-02-19T12:41:03.064Z,27.5
2023-02-19T12:42:05.020Z,27.4
2023-02-19T12:43:06.904Z,27.4
2023-02-19T12:44:11.447Z,27.4
2023-02-19T12:45:13.284Z,27.5
2023-02-19T12:46:15.442Z,27.5
2023-02-19T12:47:17.604Z,27.4
2023-02-19T12:48:19.462Z,27.4
2023-02-19T12:49:21.308Z,27.4
2023-02-19T12:50:23.154Z,27.4
2023-02-19T12:51:25.041Z,27.4
2023-02-19T12:52:26.802Z,27.4
2023-02-19T12:53:28.709Z,27.4
2023-02-19T12:54:30.455Z,27.4
2023-02-19T12:55:32.311Z,27.4
2023-02-19T12:56:34.063Z,27.4
2023-02-19T12:57:35.898Z,27.4
2023-02-19T12:58:37.756Z,27.4
2023-02-19T12:59:39.603Z,27.3
2023-02-19T13:00:41.667Z,27.3
2023-02-19T13:01:43.505Z,27.3
2023-02-19T13:02:45.369Z,27.4
2023-02-19T13:03:47.215Z,27.3
2023-02-19T13:04:48.952Z,27.4
2023-02-19T13:05:50.820Z,27.4
2023-02-19T13:06:52.636Z,27.4
2023-02-19T13:07:54.503Z,27.4
2023-02-19T13:09:07.176Z,27.4
2023-02-19T13:10:09.354Z,27.4
2023-02-19T13:11:11.459Z,27.4
2023-02-19T13:12:14.712Z,27.4
2023-02-19T13:13:16.761Z,27.4
2023-02-19T13:14:18.564Z,27.4
2023-02-19T13:15:20.357Z,27.4
2023-02-19T13:16:22.187Z,27.4
2023-02-19T13:17:24.267Z,27.4
2023-02-19T13:18:26.137Z,27.4
2023-02-19T13:19:28.031Z,27.4
2023-02-19T13:20:29.888Z,27.4
2023-02-19T13:21:32.493Z,27.4
2023-02-19T13:22:36.904Z,27.4
2023-02-19T13:23:38.791Z,27.4
2023-02-19T13:24:41.094Z,27.4
2023-02-19T13:25:42.896Z,27.4
2023-02-19T13:26:44.706Z,27.4
2023-02-19T13:28:49.239Z,27.4
2023-02-19T13:29:52.096Z,27.4
2023-02-19T13:30:55.173Z,27.4
2023-02-19T13:31:57.686Z,27.4
2023-02-19T13:33:00.165Z,27.4
2023-02-19T13:34:02.031Z,27.4
2023-02-19T13:35:03.799Z,27.4
2023-02-19T13:36:05.512Z,27.4
2023-02-19T13:37:07.506Z,27.4
2023-02-19T13:38:09.354Z,27.4
2023-02-19T13:39:11.259Z,27.4
2023-02-19T13:40:13.161Z,27.4
2023-02-19T13:41:15.044Z,27.3
2023-02-19T13:42:16.908Z,27.4
2023-02-19T13:43:18.827Z,27.4
2023-02-19T13:44:20.549Z,27.4
2023-02-19T13:45:22.614Z,27.4
2023-02-19T13:46:24.385Z,27.3
2023-02-19T13:47:26.550Z,27.4
2023-02-19T13:48:28.392Z,27.4
2023-02-19T13:49:30.281Z,27.4
2023-02-19T13:50:32.270Z,27.4